sensor_id;sensor_type;location;lat;lon;timestamp;pressure;altitude;pressure_sealevel;temperature;humidity
34081;BME280;20358;50.272;19.026;2023-03-01T00:00:48;99484.97;;;-3.75;56.10
34081;BME280;20358;50.272;19.026;2023-03-01T00:03:54;99485.84;;;-3.76;55.61
34081;BME280;20358;50.272;19.026;2023-03-01T00:07:01;99478.97;;;-3.74;56.02
34081;BME280;20358;50.272;19.026;2023-03-01T00:10:11;99476.38;;;-3.80;55.75
34081;BME280;20358;50.272;19.026;2023-03-01T00:13:17;99481.53;;;-3.74;56.62
34081;BME280;20358;50.272;19.026;2023-03-01T00:16:24;99483.28;;;-3.76;56.46
34081;BME280;20358;50.272;19.026;2023-03-01T00:19:34;99478.09;;;-3.70;56.54
34081;BME280;20358;50.272;19.026;2023-03-01T00:22:39;99474.69;;;-3.63;55.63
34081;BME280;20358;50.272;19.026;2023-03-01T00:25:48;99473.81;;;-3.56;55.96
34081;BME280;20358;50.272;19.026;2023-03-01T00:28:56;99476.38;;;-3.48;55.45
34081;BME280;20358;50.272;19.026;2023-03-01T00:32:03;99474.66;;;-3.39;55.31
34081;BME280;20358;50.272;19.026;2023-03-01T00:35:09;99472.06;;;-3.33;54.72
34081;BME280;20358;50.272;19.026;2023-03-01T00:38:15;99474.66;;;-3.30;54.81
34081;BME280;20358;50.272;19.026;2023-03-01T00:41:24;99461.75;;;-3.33;54.91
34081;BME280;20358;50.272;19.026;2023-03-01T00:44:32;99480.69;;;-3.22;55.71
34081;BME280;20358;50.272;19.026;2023-03-01T00:47:37;99477.22;;;-3.19;54.54
34081;BME280;20358;50.272;19.026;2023-03-01T00:50:44;99472.03;;;-3.18;54.39
34081;BME280;20358;50.272;19.026;2023-03-01T00:53:50;99467.72;;;-3.16;54.44
34081;BME280;20358;50.272;19.026;2023-03-01T00:57:00;99465.16;;;-3.16;54.98
34081;BME280;20358;50.272;19.026;2023-03-01T01:00:06;99482.38;;;-3.16;54.85
34081;BME280;20358;50.272;19.026;2023-03-01T01:03:14;99461.69;;;-3.16;54.22
34081;BME280;20358;50.272;19.026;2023-03-01T01:06:21;99457.41;;;-3.14;55.49
34081;BME280;20358;50.272;19.026;2023-03-01T01:09:30;99457.38;;;-3.12;54.23
34081;BME280;20358;50.272;19.026;2023-03-01T01:12:39;99454.81;;;-3.16;54.21
34081;BME280;20358;50.272;19.026;2023-03-01T01:15:45;99457.44;;;-3.22;54.72
34081;BME280;20358;50.272;19.026;2023-03-01T01:18:51;99457.44;;;-3.25;55.55
34081;BME280;20358;50.272;19.026;2023-03-01T01:21:58;99450.53;;;-3.26;55.44
34081;BME280;20358;50.272;19.026;2023-03-01T01:25:04;99446.22;;;-3.31;55.08
34081;BME280;20358;50.272;19.026;2023-03-01T01:28:14;99447.13;;;-3.43;55.38
34081;BME280;20358;50.272;19.026;2023-03-01T01:31:21;99439.34;;;-3.47;55.54
34081;BME280;20358;50.272;19.026;2023-03-01T01:34:29;99436.78;;;-3.52;55.26
34081;BME280;20358;50.272;19.026;2023-03-01T01:37:34;99441.97;;;-3.61;55.38
34081;BME280;20358;50.272;19.026;2023-03-01T01:40:44;99442.81;;;-3.63;55.44
34081;BME280;20358;50.272;19.026;2023-03-01T01:44:15;99432.50;;;-3.60;55.95
34081;BME280;20358;50.272;19.026;2023-03-01T01:47:24;99425.63;;;-3.55;54.99
34081;BME280;20358;50.272;19.026;2023-03-01T01:50:31;99423.03;;;-3.51;55.01
34081;BME280;20358;50.272;19.026;2023-03-01T01:53:47;99424.72;;;-3.47;54.77
34081;BME280;20358;50.272;19.026;2023-03-01T01:57:00;99412.66;;;-3.42;55.06
34081;BME280;20358;50.272;19.026;2023-03-01T02:00:18;99369.69;;;-3.64;54.30
34081;BME280;20358;50.272;19.026;2023-03-01T02:03:31;99407.50;;;-3.33;54.70
34081;BME280;20358;50.272;19.026;2023-03-01T02:06:47;99407.50;;;-3.33;54.55
34081;BME280;20358;50.272;19.026;2023-03-01T02:09:57;99407.50;;;-3.33;55.32
34081;BME280;20358;50.272;19.026;2023-03-01T02:13:04;99415.22;;;-3.34;55.00
34081;BME280;20358;50.272;19.026;2023-03-01T02:16:14;99418.69;;;-3.34;54.89
34081;BME280;20358;50.272;19.026;2023-03-01T02:19:35;99407.50;;;-3.36;54.50
34081;BME280;20358;50.272;19.026;2023-03-01T02:22:54;99407.50;;;-3.37;55.18
34081;BME280;20358;50.272;19.026;2023-03-01T02:26:09;99411.81;;;-3.38;54.62
34081;BME280;20358;50.272;19.026;2023-03-01T02:29:25;99399.78;;;-3.43;54.20
34081;BME280;20358;50.272;19.026;2023-03-01T02:32:34;99427.31;;;-3.35;54.98
34081;BME280;20358;50.272;19.026;2023-03-01T02:35:40;99435.03;;;-3.39;55.31
34081;BME280;20358;50.272;19.026;2023-03-01T02:38:48;99201.22;;;-4.90;54.75
34081;BME280;20358;50.272;19.026;2023-03-01T02:41:57;99424.75;;;-3.62;55.37
34081;BME280;20358;50.272;19.026;2023-03-01T02:45:08;99419.59;;;-3.74;55.72
34081;BME280;20358;50.272;19.026;2023-03-01T02:48:14;99416.16;;;-3.82;55.72
34081;BME280;20358;50.272;19.026;2023-03-01T02:51:42;99417.88;;;-3.87;56.20
34081;BME280;20358;50.272;19.026;2023-03-01T02:54:59;99415.28;;;-3.93;56.22
34081;BME280;20358;50.272;19.026;2023-03-01T02:58:09;99421.31;;;-4.00;55.38
34081;BME280;20358;50.272;19.026;2023-03-01T03:01:18;99418.72;;;-4.00;56.42
34081;BME280;20358;50.272;19.026;2023-03-01T03:04:25;99417.88;;;-4.02;55.81
34081;BME280;20358;50.272;19.026;2023-03-01T03:07:32;99418.72;;;-4.08;55.57
34081;BME280;20358;50.272;19.026;2023-03-01T03:10:40;99414.41;;;-4.10;55.84
34081;BME280;20358;50.272;19.026;2023-03-01T03:13:46;99408.38;;;-4.14;55.71
34081;BME280;20358;50.272;19.026;2023-03-01T03:16:57;99412.69;;;-4.14;55.90
34081;BME280;20358;50.272;19.026;2023-03-01T03:20:03;99415.28;;;-4.13;55.97
34081;BME280;20358;50.272;19.026;2023-03-01T03:23:13;99402.38;;;-4.11;56.31
34081;BME280;20358;50.272;19.026;2023-03-01T03:26:19;99397.22;;;-4.08;55.59
34081;BME280;20358;50.272;19.026;2023-03-01T03:29:25;99400.66;;;-4.06;56.34
34081;BME280;20358;50.272;19.026;2023-03-01T03:32:34;99395.50;;;-4.03;55.51
34081;BME280;20358;50.272;19.026;2023-03-01T03:35:42;99390.34;;;-4.00;56.29
34081;BME280;20358;50.272;19.026;2023-03-01T03:38:51;99386.06;;;-3.92;55.54
34081;BME280;20358;50.272;19.026;2023-03-01T03:41:58;99382.59;;;-3.88;55.24
34081;BME280;20358;50.272;19.026;2023-03-01T03:45:04;99380.88;;;-3.88;56.02
34081;BME280;20358;50.272;19.026;2023-03-01T03:48:14;99386.88;;;-3.81;56.50
34081;BME280;20358;50.272;19.026;2023-03-01T03:51:21;99395.50;;;-3.74;56.32
34081;BME280;20358;50.272;19.026;2023-03-01T03:54:28;99401.53;;;-3.69;56.15
34081;BME280;20358;50.272;19.026;2023-03-01T03:57:33;99401.50;;;-3.72;54.64
34081;BME280;20358;50.272;19.026;2023-03-01T04:00:42;99397.22;;;-3.83;55.52
34081;BME280;20358;50.272;19.026;2023-03-01T04:03:51;99383.47;;;-3.95;55.16
34081;BME280;20358;50.272;19.026;2023-03-01T04:06:58;99388.63;;;-4.01;56.44
34081;BME280;20358;50.272;19.026;2023-03-01T04:10:05;99392.94;;;-4.05;56.77
34081;BME280;20358;50.272;19.026;2023-03-01T04:13:15;99386.91;;;-4.08;56.49
34081;BME280;20358;50.272;19.026;2023-03-01T04:16:22;99395.47;;;-4.09;57.04
34081;BME280;20358;50.272;19.026;2023-03-01T04:19:32;99392.06;;;-4.08;56.93
34081;BME280;20358;50.272;19.026;2023-03-01T04:22:39;99400.66;;;-4.09;56.82
34081;BME280;20358;50.272;19.026;2023-03-01T04:25:48;99401.50;;;-4.12;56.90
34081;BME280;20358;50.272;19.026;2023-03-01T04:28:55;99392.06;;;-4.11;56.12
34081;BME280;20358;50.272;19.026;2023-03-01T04:32:02;99398.94;;;-4.10;55.78
34081;BME280;20358;50.272;19.026;2023-03-01T04:35:11;99386.91;;;-4.08;56.11
34081;BME280;20358;50.272;19.026;2023-03-01T04:38:19;99380.00;;;-4.09;56.89
34081;BME280;20358;50.272;19.026;2023-03-01T04:41:26;99386.06;;;-4.07;56.24
34081;BME280;20358;50.272;19.026;2023-03-01T04:44:32;99376.59;;;-4.05;55.90
34081;BME280;20358;50.272;19.026;2023-03-01T04:47:37;99378.28;;;-4.01;56.52
34081;BME280;20358;50.272;19.026;2023-03-01T04:50:48;99383.47;;;-3.97;56.84
34081;BME280;20358;50.272;19.026;2023-03-01T04:53:53;99377.44;;;-3.96;56.31
34081;BME280;20358;50.272;19.026;2023-03-01T04:57:00;99380.00;;;-3.91;56.68
34081;BME280;20358;50.272;19.026;2023-03-01T05:00:09;99372.28;;;-3.87;56.30
34081;BME280;20358;50.272;19.026;2023-03-01T05:03:25;99364.53;;;-3.85;56.57
34081;BME280;20358;50.272;19.026;2023-03-01T05:06:33;99367.97;;;-3.86;55.53
34081;BME280;20358;50.272;19.026;2023-03-01T05:09:40;99364.53;;;-3.85;56.60
34081;BME280;20358;50.272;19.026;2023-03-01T05:12:46;99372.25;;;-3.84;56.44
34081;BME280;20358;50.272;19.026;2023-03-01T05:15:55;99374.00;;;-3.86;56.22
34081;BME280;20358;50.272;19.026;2023-03-01T05:19:02;99366.25;;;-3.86;55.76
34081;BME280;20358;50.272;19.026;2023-03-01T05:22:17;99361.09;;;-3.87;56.64
34081;BME280;20358;50.272;19.026;2023-03-01T05:25:22;99360.22;;;-3.88;55.95
34081;BME280;20358;50.272;19.026;2023-03-01T05:28:29;99351.66;;;-3.87;56.29
34081;BME280;20358;50.272;19.026;2023-03-01T05:31:35;99357.63;;;-3.86;56.86
34081;BME280;20358;50.272;19.026;2023-03-01T05:34:41;99352.47;;;-3.86;56.08
34081;BME280;20358;50.272;19.026;2023-03-01T05:37:51;99355.94;;;-3.87;56.90
34081;BME280;20358;50.272;19.026;2023-03-01T05:40:57;99361.09;;;-3.87;56.90
34081;BME280;20358;50.272;19.026;2023-03-01T05:44:03;99373.16;;;-3.85;55.81
34081;BME280;20358;50.272;19.026;2023-03-01T05:47:11;99371.44;;;-3.84;56.71
34081;BME280;20358;50.272;19.026;2023-03-01T05:50:19;99374.84;;;-3.91;56.45
34081;BME280;20358;50.272;19.026;2023-03-01T05:53:30;99384.31;;;-3.96;57.22
34081;BME280;20358;50.272;19.026;2023-03-01T05:56:36;99321.56;;;-4.44;56.82
34081;BME280;20358;50.272;19.026;2023-03-01T05:59:43;99381.75;;;-4.08;56.78
34081;BME280;20358;50.272;19.026;2023-03-01T06:02:48;99381.72;;;-4.11;57.74
34081;BME280;20358;50.272;19.026;2023-03-01T06:05:56;99383.47;;;-4.13;56.64
34081;BME280;20358;50.272;19.026;2023-03-01T06:09:05;99379.16;;;-4.13;57.42
34081;BME280;20358;50.272;19.026;2023-03-01T06:12:12;99381.72;;;-4.14;56.92
34081;BME280;20358;50.272;19.026;2023-03-01T06:15:19;99381.72;;;-4.11;58.15
34081;BME280;20358;50.272;19.026;2023-03-01T06:18:25;99386.91;;;-4.05;57.82
34081;BME280;20358;50.272;19.026;2023-03-01T06:21:31;99386.06;;;-3.97;57.55
34081;BME280;20358;50.272;19.026;2023-03-01T06:24:40;99388.59;;;-3.86;57.58
34081;BME280;20358;50.272;19.026;2023-03-01T06:27:46;99391.19;;;-3.80;57.27
34081;BME280;20358;50.272;19.026;2023-03-01T06:30:54;99356.78;;;-4.02;56.66
34081;BME280;20358;50.272;19.026;2023-03-01T06:34:01;99400.66;;;-3.82;57.33
34081;BME280;20358;50.272;19.026;2023-03-01T06:37:07;99386.03;;;-3.85;57.68
34081;BME280;20358;50.272;19.026;2023-03-01T06:40:16;99396.38;;;-3.77;57.34
34081;BME280;20358;50.272;19.026;2023-03-01T06:43:24;99388.59;;;-3.75;57.70
34081;BME280;20358;50.272;19.026;2023-03-01T06:46:29;99383.44;;;-3.68;57.46
34081;BME280;20358;50.272;19.026;2023-03-01T06:49:36;99380.00;;;-3.58;56.71
34081;BME280;20358;50.272;19.026;2023-03-01T06:52:42;99383.41;;;-3.50;56.75
34081;BME280;20358;50.272;19.026;2023-03-01T06:55:54;99385.13;;;-3.41;56.92
34081;BME280;20358;50.272;19.026;2023-03-01T06:59:01;99380.78;;;-3.32;56.35
34081;BME280;20358;50.272;19.026;2023-03-01T07:02:10;99379.94;;;-3.22;56.46
34081;BME280;20358;50.272;19.026;2023-03-01T07:05:16;99382.47;;;-3.16;55.69
34081;BME280;20358;50.272;19.026;2023-03-01T07:08:23;99378.16;;;-3.06;55.67
34081;BME280;20358;50.272;19.026;2023-03-01T07:11:31;99377.25;;;-2.96;55.43
34081;BME280;20358;50.272;19.026;2023-03-01T07:14:38;99370.28;;;-2.85;55.99
34081;BME280;20358;50.272;19.026;2023-03-01T07:17:43;99374.53;;;-2.70;55.00
34081;BME280;20358;50.272;19.026;2023-03-01T07:20:52;99375.34;;;-2.58;54.77
34081;BME280;20358;50.272;19.026;2023-03-01T07:23:58;99360.59;;;-2.45;54.04
34081;BME280;20358;50.272;19.026;2023-03-01T07:27:07;99360.56;;;-2.36;54.41
34081;BME280;20358;50.272;19.026;2023-03-01T07:30:12;99361.34;;;-2.29;54.31
34081;BME280;20358;50.272;19.026;2023-03-01T07:33:19;99358.69;;;-2.19;53.79
34081;BME280;20358;50.272;19.026;2023-03-01T07:36:25;99353.44;;;-2.10;53.99
34081;BME280;20358;50.272;19.026;2023-03-01T07:39:32;99350.75;;;-1.99;53.83
34081;BME280;20358;50.272;19.026;2023-03-01T07:42:40;99360.16;;;-1.87;53.85
34081;BME280;20358;50.272;19.026;2023-03-01T07:45:46;99281.94;;;-2.23;53.57
34081;BME280;20358;50.272;19.026;2023-03-01T07:48:53;99355.69;;;-1.69;52.88
34081;BME280;20358;50.272;19.026;2023-03-01T07:52:00;99359.88;;;-1.57;52.82
34081;BME280;20358;50.272;19.026;2023-03-01T07:55:07;99353.72;;;-1.46;52.59
34081;BME280;20358;50.272;19.026;2023-03-01T07:58:16;99361.34;;;-1.32;52.55
34081;BME280;20358;50.272;19.026;2023-03-01T08:01:22;99348.31;;;-1.26;51.50
34081;BME280;20358;50.272;19.026;2023-03-01T08:04:28;99345.69;;;-1.20;51.32
34081;BME280;20358;50.272;19.026;2023-03-01T08:07:34;99342.13;;;-1.13;51.11
34081;BME280;20358;50.272;19.026;2023-03-01T08:10:40;99347.25;;;-1.07;50.73
34081;BME280;20358;50.272;19.026;2023-03-01T08:13:49;99346.31;;;-1.03;50.60
34081;BME280;20358;50.272;19.026;2023-03-01T08:16:56;99326.63;;;-1.19;50.18
34081;BME280;20358;50.272;19.026;2023-03-01T08:20:02;99351.53;;;-1.06;49.76
34081;BME280;20358;50.272;19.026;2023-03-01T08:23:10;99352.44;;;-1.07;49.90
34081;BME280;20358;50.272;19.026;2023-03-01T08:26:18;99336.97;;;-1.14;49.40
34081;BME280;20358;50.272;19.026;2023-03-01T08:29:31;99148.31;;;-2.27;50.49
34081;BME280;20358;50.272;19.026;2023-03-01T08:32:38;99346.34;;;-1.04;50.18
34081;BME280;20358;50.272;19.026;2023-03-01T08:35:44;99333.31;;;-1.00;49.96
34081;BME280;20358;50.272;19.026;2023-03-01T08:38:51;99342.72;;;-0.93;49.42
34081;BME280;20358;50.272;19.026;2023-03-01T08:41:57;99327.91;;;-0.82;49.30
34081;BME280;20358;50.272;19.026;2023-03-01T08:45:07;99326.94;;;-0.75;48.59
34081;BME280;20358;50.272;19.026;2023-03-01T08:48:14;99332.09;;;-0.70;48.14
34081;BME280;20358;50.272;19.026;2023-03-01T08:51:20;99329.41;;;-0.66;48.41
34081;BME280;20358;50.272;19.026;2023-03-01T08:54:27;99325.81;;;-0.55;48.33
34081;BME280;20358;50.272;19.026;2023-03-01T08:57:33;99328.34;;;-0.51;48.11
34081;BME280;20358;50.272;19.026;2023-03-01T09:00:42;99334.34;;;-0.47;47.34
34081;BME280;20358;50.272;19.026;2023-03-01T09:03:48;99328.28;;;-0.45;47.58
34081;BME280;20358;50.272;19.026;2023-03-01T09:06:54;99328.25;;;-0.42;48.20
34081;BME280;20358;50.272;19.026;2023-03-01T09:10:00;99323.84;;;-0.38;48.06
34081;BME280;20358;50.272;19.026;2023-03-01T09:13:06;99320.22;;;-0.28;48.02
34081;BME280;20358;50.272;19.026;2023-03-01T09:16:16;99325.22;;;-0.15;47.83
34081;BME280;20358;50.272;19.026;2023-03-01T09:19:26;99320.84;;;-0.13;47.94
34081;BME280;20358;50.272;19.026;2023-03-01T09:22:33;99322.53;;;-0.09;47.09
34081;BME280;20358;50.272;19.026;2023-03-01T09:25:39;99328.66;;;-0.14;46.06
34081;BME280;20358;50.272;19.026;2023-03-01T09:28:45;99326.19;;;-0.22;46.49
34081;BME280;20358;50.272;19.026;2023-03-01T09:31:55;99320.09;;;-0.19;47.16
34081;BME280;20358;50.272;19.026;2023-03-01T09:35:00;99320.06;;;-0.18;47.49
34081;BME280;20358;50.272;19.026;2023-03-01T09:38:07;99326.03;;;-0.13;47.68
34081;BME280;20358;50.272;19.026;2023-03-01T09:41:35;99326.00;;;-0.08;46.82
34081;BME280;20358;50.272;19.026;2023-03-01T09:44:53;99335.44;;;-0.04;47.03
34081;BME280;20358;50.272;19.026;2023-03-01T09:48:13;99308.47;;;0.05;46.37
34081;BME280;20358;50.272;19.026;2023-03-01T09:51:29;99309.22;;;0.10;45.99
34081;BME280;20358;50.272;19.026;2023-03-01T09:54:37;99310.81;;;0.18;44.13
34081;BME280;20358;50.272;19.026;2023-03-01T09:57:49;99303.84;;;0.20;44.49
34081;BME280;20358;50.272;19.026;2023-03-01T10:01:04;99306.31;;;0.26;44.33
34081;BME280;20358;50.272;19.026;2023-03-01T10:04:43;99308.03;;;0.29;44.48
34081;BME280;20358;50.272;19.026;2023-03-01T10:08:11;99301.94;;;0.30;44.14
34081;BME280;20358;50.272;19.026;2023-03-01T10:11:37;99299.16;;;0.40;44.75
34081;BME280;20358;50.272;19.026;2023-03-01T10:14:51;99305.97;;;0.46;43.92
34081;BME280;20358;50.272;19.026;2023-03-01T10:18:12;99301.50;;;0.52;44.38
34081;BME280;20358;50.272;19.026;2023-03-01T10:21:28;99303.97;;;0.60;43.71
34081;BME280;20358;50.272;19.026;2023-03-01T10:24:36;99248.13;;;0.36;43.91
34081;BME280;20358;50.272;19.026;2023-03-01T10:27:51;99295.91;;;0.74;43.83
34081;BME280;20358;50.272;19.026;2023-03-01T10:30:59;99294.00;;;0.82;43.91
34081;BME280;20358;50.272;19.026;2023-03-01T10:34:10;99292.22;;;0.84;43.45
34081;BME280;20358;50.272;19.026;2023-03-01T10:37:21;99294.00;;;0.83;43.34
34081;BME280;20358;50.272;19.026;2023-03-01T10:40:29;99288.69;;;0.88;43.38
34081;BME280;20358;50.272;19.026;2023-03-01T10:43:45;99286.69;;;0.99;43.89
34081;BME280;20358;50.272;19.026;2023-03-01T10:46:59;99286.63;;;1.02;43.59
34081;BME280;20358;50.272;19.026;2023-03-01T10:50:19;99286.56;;;1.05;42.05
34081;BME280;20358;50.272;19.026;2023-03-01T10:53:33;99270.38;;;0.92;42.61
34081;BME280;20358;50.272;19.026;2023-03-01T10:56:49;99278.78;;;1.05;41.96
34081;BME280;20358;50.272;19.026;2023-03-01T11:00:14;99275.25;;;1.09;42.44
34081;BME280;20358;50.272;19.026;2023-03-01T11:03:26;99272.63;;;1.09;43.18
34081;BME280;20358;50.272;19.026;2023-03-01T11:06:35;99261.13;;;1.19;43.01
34081;BME280;20358;50.272;19.026;2023-03-01T11:09:45;99249.56;;;1.31;42.95
34081;BME280;20358;50.272;19.026;2023-03-01T11:12:52;99254.66;;;1.35;42.78
34081;BME280;20358;50.272;19.026;2023-03-01T11:16:01;99252.84;;;1.40;42.13
34081;BME280;20358;50.272;19.026;2023-03-01T11:19:20;99244.94;;;1.43;41.91
34081;BME280;20358;50.272;19.026;2023-03-01T11:22:27;99247.53;;;1.43;43.00
34081;BME280;20358;50.272;19.026;2023-03-01T11:25:42;98872.91;;;-0.66;42.95
34081;BME280;20358;50.272;19.026;2023-03-01T11:28:56;99229.78;;;1.60;42.63
34081;BME280;20358;50.272;19.026;2023-03-01T11:32:09;99229.47;;;1.72;42.52
34081;BME280;20358;50.272;19.026;2023-03-01T11:35:23;99228.78;;;1.66;42.53
34081;BME280;20358;50.272;19.026;2023-03-01T11:38:36;99232.94;;;1.73;43.04
34081;BME280;20358;50.272;19.026;2023-03-01T11:41:51;99239.69;;;1.81;43.10
34081;BME280;20358;50.272;19.026;2023-03-01T11:45:23;99236.09;;;1.86;42.82
34081;BME280;20358;50.272;19.026;2023-03-01T11:48:46;99237.75;;;1.90;42.48
34081;BME280;20358;50.272;19.026;2023-03-01T11:52:09;99204.03;;;1.82;42.55
34081;BME280;20358;50.272;19.026;2023-03-01T11:55:52;99226.28;;;1.97;42.21
34081;BME280;20358;50.272;19.026;2023-03-01T11:59:48;99215.63;;;2.06;41.66
34081;BME280;20358;50.272;19.026;2023-03-01T12:03:39;99209.09;;;2.22;41.29
34081;BME280;20358;50.272;19.026;2023-03-01T12:06:59;99178.97;;;2.12;41.51
34081;BME280;20358;50.272;19.026;2023-03-01T12:10:22;99199.28;;;2.31;41.82
34081;BME280;20358;50.272;19.026;2023-03-01T12:17:57;99191.16;;;2.42;39.96
34081;BME280;20358;50.272;19.026;2023-03-01T12:21:34;99197.31;;;2.39;39.73
34081;BME280;20358;50.272;19.026;2023-03-01T12:25:16;99195.50;;;2.41;40.62
34081;BME280;20358;50.272;19.026;2023-03-01T12:28:41;99196.38;;;2.42;39.78
34081;BME280;20358;50.272;19.026;2023-03-01T12:32:15;99163.84;;;2.26;39.65
34081;BME280;20358;50.272;19.026;2023-03-01T12:35:57;99186.03;;;2.39;38.90
34081;BME280;20358;50.272;19.026;2023-03-01T12:39:35;99177.47;;;2.34;39.78
34081;BME280;20358;50.272;19.026;2023-03-01T12:43:03;99172.09;;;2.40;40.16
34081;BME280;20358;50.272;19.026;2023-03-01T12:46:35;99172.03;;;2.43;39.00
34081;BME280;20358;50.272;19.026;2023-03-01T12:49:59;99163.31;;;2.44;37.74
34081;BME280;20358;50.272;19.026;2023-03-01T12:53:22;99164.13;;;2.44;36.71
34081;BME280;20358;50.272;19.026;2023-03-01T12:56:35;99161.44;;;2.49;37.24
34081;BME280;20358;50.272;19.026;2023-03-01T12:59:55;99154.22;;;2.57;38.34
34081;BME280;20358;50.272;19.026;2023-03-01T13:03:22;99150.34;;;2.70;38.12
34081;BME280;20358;50.272;19.026;2023-03-01T13:06:44;99110.16;;;2.48;35.09
34081;BME280;20358;50.272;19.026;2023-03-01T13:10:20;99139.81;;;2.73;35.20
34081;BME280;20358;50.272;19.026;2023-03-01T13:13:31;99144.84;;;2.79;34.17
34081;BME280;20358;50.272;19.026;2023-03-01T13:16:41;99150.72;;;2.86;35.20
34081;BME280;20358;50.272;19.026;2023-03-01T13:19:57;99133.47;;;2.82;34.70
34081;BME280;20358;50.272;19.026;2023-03-01T13:23:11;99135.13;;;2.84;34.61
34081;BME280;20358;50.272;19.026;2023-03-01T13:27:10;99141.25;;;2.83;35.86
34081;BME280;20358;50.272;19.026;2023-03-01T13:30:41;99141.16;;;2.86;36.02
34081;BME280;20358;50.272;19.026;2023-03-01T13:33:48;99142.78;;;2.90;35.16
34081;BME280;20358;50.272;19.026;2023-03-01T13:37:08;99139.34;;;2.88;34.01
34081;BME280;20358;50.272;19.026;2023-03-01T13:44:23;99125.31;;;2.92;35.44
34081;BME280;20358;50.272;19.026;2023-03-01T13:47:39;99132.34;;;2.90;34.84
34081;BME280;20358;50.272;19.026;2023-03-01T13:50:50;99123.34;;;2.99;35.32
34081;BME280;20358;50.272;19.026;2023-03-01T13:54:00;99110.97;;;3.05;35.86
34081;BME280;20358;50.272;19.026;2023-03-01T13:57:20;99121.41;;;3.05;35.31
34081;BME280;20358;50.272;19.026;2023-03-01T14:00:39;99117.88;;;3.06;35.90
34081;BME280;20358;50.272;19.026;2023-03-01T14:03:45;99109.16;;;3.07;35.24
34081;BME280;20358;50.272;19.026;2023-03-01T14:07:09;99097.69;;;3.13;34.59
34081;BME280;20358;50.272;19.026;2023-03-01T14:10:16;99102.75;;;3.18;34.82
34081;BME280;20358;50.272;19.026;2023-03-01T14:13:36;99096.72;;;3.16;35.16
34081;BME280;20358;50.272;19.026;2023-03-01T14:17:09;99101.06;;;3.17;33.58
34081;BME280;20358;50.272;19.026;2023-03-01T14:20:30;99099.28;;;3.17;34.18
34081;BME280;20358;50.272;19.026;2023-03-01T14:23:40;99096.53;;;3.22;35.00
34081;BME280;20358;50.272;19.026;2023-03-01T14:26:50;99094.66;;;3.25;33.42
34081;BME280;20358;50.272;19.026;2023-03-01T14:29:57;99087.69;;;3.26;34.46
34081;BME280;20358;50.272;19.026;2023-03-01T14:33:20;99085.78;;;3.31;35.07
34081;BME280;20358;50.272;19.026;2023-03-01T14:36:29;99077.94;;;3.31;34.20
34081;BME280;20358;50.272;19.026;2023-03-01T14:39:37;99080.47;;;3.34;34.42
34081;BME280;20358;50.272;19.026;2023-03-01T14:42:43;99077.94;;;3.31;34.95
34081;BME280;20358;50.272;19.026;2023-03-01T14:45:50;99082.19;;;3.35;34.26
34081;BME280;20358;50.272;19.026;2023-03-01T14:49:03;99074.28;;;3.36;33.94
34081;BME280;20358;50.272;19.026;2023-03-01T14:52:21;99075.16;;;3.35;34.56
34081;BME280;20358;50.272;19.026;2023-03-01T14:55:35;99077.94;;;3.31;34.83
34081;BME280;20358;50.272;19.026;2023-03-01T14:58:44;99076.38;;;3.25;35.38
34081;BME280;20358;50.272;19.026;2023-03-01T15:01:55;99083.25;;;3.28;35.49
34081;BME280;20358;50.272;19.026;2023-03-01T15:05:08;99086.66;;;3.30;35.78
34081;BME280;20358;50.272;19.026;2023-03-01T15:08:19;99074.63;;;3.26;35.64
34081;BME280;20358;50.272;19.026;2023-03-01T15:11:30;99073.06;;;3.22;35.68
34081;BME280;20358;50.272;19.026;2023-03-01T15:14:40;99070.44;;;3.22;35.96
34081;BME280;20358;50.272;19.026;2023-03-01T15:18:15;99069.56;;;3.21;35.29
34081;BME280;20358;50.272;19.026;2023-03-01T15:21:27;99074.63;;;3.26;35.57
34081;BME280;20358;50.272;19.026;2023-03-01T15:24:37;99076.22;;;3.30;36.73
34081;BME280;20358;50.272;19.026;2023-03-01T15:27:46;99067.50;;;3.31;35.85
34081;BME280;20358;50.272;19.026;2023-03-01T15:30:57;99071.84;;;3.32;35.72
34081;BME280;20358;50.272;19.026;2023-03-01T15:34:19;99067.75;;;3.23;36.44
34081;BME280;20358;50.272;19.026;2023-03-01T15:37:40;99061.50;;;3.29;36.12
34081;BME280;20358;50.272;19.026;2023-03-01T15:40:51;98992.16;;;2.95;36.21
34081;BME280;20358;50.272;19.026;2023-03-01T15:44:00;99070.78;;;3.37;36.82
34081;BME280;20358;50.272;19.026;2023-03-01T15:47:28;99061.97;;;3.40;36.66
34081;BME280;20358;50.272;19.026;2023-03-01T15:50:36;99061.16;;;3.38;35.85
34081;BME280;20358;50.272;19.026;2023-03-01T15:53:50;99063.75;;;3.39;36.52
34081;BME280;20358;50.272;19.026;2023-03-01T15:56:58;99067.13;;;3.41;36.05
34081;BME280;20358;50.272;19.026;2023-03-01T16:00:05;99069.00;;;3.38;36.88
34081;BME280;20358;50.272;19.026;2023-03-01T16:03:16;99070.00;;;3.34;36.61
34081;BME280;20358;50.272;19.026;2023-03-01T16:06:24;99066.63;;;3.32;36.46
34081;BME280;20358;50.272;19.026;2023-03-01T16:09:34;99071.94;;;3.29;36.57
34081;BME280;20358;50.272;19.026;2023-03-01T16:12:40;99070.53;;;3.19;35.42
34081;BME280;20358;50.272;19.026;2023-03-01T16:15:46;99078.66;;;3.10;36.29
34081;BME280;20358;50.272;19.026;2023-03-01T16:18:52;99079.75;;;3.02;36.44
34081;BME280;20358;50.272;19.026;2023-03-01T16:21:58;99090.28;;;2.99;36.16
34081;BME280;20358;50.272;19.026;2023-03-01T16:25:08;99083.56;;;2.92;35.60
34081;BME280;20358;50.272;19.026;2023-03-01T16:28:15;99085.38;;;2.90;36.08
34081;BME280;20358;50.272;19.026;2023-03-01T16:31:21;99081.31;;;2.82;35.73
34081;BME280;20358;50.272;19.026;2023-03-01T16:34:29;99090.16;;;2.76;36.50
34081;BME280;20358;50.272;19.026;2023-03-01T16:37:35;99099.13;;;2.68;36.49
34081;BME280;20358;50.272;19.026;2023-03-01T16:40:48;99100.38;;;2.56;36.53
34081;BME280;20358;50.272;19.026;2023-03-01T16:43:55;99104.91;;;2.50;35.94
34081;BME280;20358;50.272;19.026;2023-03-01T16:47:01;99093.03;;;2.39;35.34
34081;BME280;20358;50.272;19.026;2023-03-01T16:50:08;99105.41;;;2.33;36.75
34081;BME280;20358;50.272;19.026;2023-03-01T16:53:15;99097.75;;;2.27;36.19
34081;BME280;20358;50.272;19.026;2023-03-01T16:56:24;99097.94;;;2.21;36.17